Black Oak, Arkansas
Current Conditions -  °F | °C
As of 5:53 AM on Monday 22 Dec 2014 (Local Time) from KJBR Reporting Station
Haze Haze  
Wind Chill: 41°   Ceiling: 200
Heat Index: 46°   Visibility: 1.2mi
Dew Point: 46°   Wind: 12mph
Humidity: 100%   Direction: 150°SSE
Pressure: 29.81"   Gusts: NA
Location:  35.84°N, 90.37°W
Report Text: KJBR 221153Z AUTO 15010KT 1 1/4SM BR OVC002 08/08 A2981 RMK AO2 SLP094 T00780078 10078 20050 56016
Loading
Personal Weather Stations






























Interactive Weather Map New forecast layout! Learn more

10-Day Weather Forecast

Advertisements
Track Severe Weather on mobile